createdAt,value
2022-12-18T00:01:27.316Z,75.86
2022-12-18T00:03:56.379Z,75.69
2022-12-18T00:06:25.260Z,75.86
2022-12-18T00:08:53.326Z,75.75
2022-12-18T00:11:22.950Z,75.83
2022-12-18T00:13:51.157Z,75.92
2022-12-18T00:16:21.395Z,75.92
2022-12-18T00:18:50.361Z,75.88
2022-12-18T00:21:19.351Z,76.18
2022-12-18T00:23:48.383Z,76.34
2022-12-18T00:26:24.247Z,76.22
2022-12-18T00:28:53.511Z,76.05
2022-12-18T00:31:24.360Z,75.91
2022-12-18T00:33:56.211Z,75.59
2022-12-18T00:36:27.461Z,75.95
2022-12-18T00:38:56.905Z,76.09
2022-12-18T00:41:43.921Z,76.03
2022-12-18T00:44:13.904Z,76.16
2022-12-18T00:46:43.003Z,76.04
2022-12-18T00:49:10.623Z,75.79
2022-12-18T00:51:38.221Z,75.69
2022-12-18T00:54:05.812Z,75.74
2022-12-18T00:56:33.121Z,75.67
2022-12-18T00:59:00.605Z,75.56
2022-12-18T01:01:28.789Z,75.79
2022-12-18T01:03:56.384Z,75.70
2022-12-18T01:06:24.195Z,75.72
2022-12-18T01:08:51.834Z,75.93
2022-12-18T01:11:20.857Z,75.74
2022-12-18T01:13:49.848Z,75.62
2022-12-18T01:16:18.139Z,75.89
2022-12-18T01:18:45.813Z,75.54
2022-12-18T01:21:16.652Z,75.50
2022-12-18T01:23:44.006Z,75.69
2022-12-18T01:26:16.620Z,75.72
2022-12-18T01:28:45.129Z,75.93
2022-12-18T01:31:21.711Z,76.09
2022-12-18T01:33:50.346Z,75.99
2022-12-18T01:36:22.566Z,75.79
2022-12-18T01:38:51.648Z,75.80
2022-12-18T01:41:49.456Z,75.89
2022-12-18T01:44:58.265Z,75.60
2022-12-18T01:47:39.619Z,75.85
2022-12-18T01:50:14.058Z,75.75
2022-12-18T01:52:44.219Z,75.64
2022-12-18T01:55:12.793Z,75.53
2022-12-18T01:57:42.393Z,75.49
2022-12-18T02:00:16.739Z,75.55
2022-12-18T02:02:46.693Z,75.73
2022-12-18T02:05:24.206Z,75.49
2022-12-18T02:07:57.617Z,75.45
2022-12-18T02:10:31.325Z,75.27
2022-12-18T02:13:21.578Z,75.22
2022-12-18T02:16:04.264Z,75.47
2022-12-18T02:18:38.579Z,75.17
2022-12-18T02:21:16.501Z,75.17
2022-12-18T02:23:52.080Z,75.47
2022-12-18T02:26:42.002Z,75.66
2022-12-18T02:29:15.688Z,75.78
2022-12-18T02:31:50.599Z,75.59
2022-12-18T02:34:20.801Z,75.58
2022-12-18T02:36:50.440Z,75.40
2022-12-18T02:39:21.500Z,75.31
2022-12-18T02:42:00.344Z,75.19
2022-12-18T02:44:27.581Z,75.17
2022-12-18T02:46:55.432Z,74.85
2022-12-18T02:49:32.241Z,75.10
2022-12-18T02:52:10.390Z,75.26
2022-12-18T02:54:48.728Z,75.18
2022-12-18T02:57:49.380Z,75.11
2022-12-18T03:00:32.746Z,75.28
2022-12-18T03:03:20.634Z,74.92
2022-12-18T03:05:57.057Z,75.11
2022-12-18T03:08:39.846Z,75.21
2022-12-18T03:11:11.071Z,75.47
2022-12-18T03:13:51.515Z,75.58
2022-12-18T03:16:26.994Z,75.74
2022-12-18T03:19:08.867Z,75.51
2022-12-18T03:21:43.691Z,75.43
2022-12-18T03:24:11.915Z,75.45
2022-12-18T03:26:44.956Z,75.44
2022-12-18T03:29:19.510Z,75.44
2022-12-18T03:31:52.845Z,75.35
2022-12-18T03:34:31.898Z,75.45
2022-12-18T03:37:03.926Z,75.41
2022-12-18T03:39:33.302Z,75.29
2022-12-18T03:42:03.671Z,75.27
2022-12-18T03:44:53.450Z,75.09
2022-12-18T03:47:40.624Z,75.27
2022-12-18T03:50:17.874Z,75.16
2022-12-18T03:52:55.616Z,75.22
2022-12-18T03:55:27.100Z,75.30
2022-12-18T03:58:00.437Z,75.19
2022-12-18T04:00:32.582Z,75.36
2022-12-18T04:03:06.342Z,75.33
2022-12-18T04:05:44.464Z,75.31
2022-12-18T04:08:12.688Z,75.26
2022-12-18T04:10:43.167Z,75.31
2022-12-18T04:13:11.003Z,75.03
2022-12-18T04:15:39.503Z,75.27
2022-12-18T04:18:08.658Z,75.16
2022-12-18T04:20:41.355Z,75.24
2022-12-18T04:23:09.221Z,75.21
2022-12-18T04:25:37.381Z,75.22
2022-12-18T04:28:12.123Z,75.12
2022-12-18T04:30:39.656Z,74.97
2022-12-18T04:33:11.765Z,74.98
2022-12-18T04:35:41.046Z,74.89
2022-12-18T04:38:11.887Z,75.10
2022-12-18T04:40:39.594Z,75.08
2022-12-18T04:43:13.321Z,75.38
2022-12-18T04:45:40.778Z,75.29
2022-12-18T04:48:07.940Z,75.26
2022-12-18T04:50:35.841Z,75.16
2022-12-18T04:53:03.002Z,74.91
2022-12-18T04:55:30.352Z,74.87
2022-12-18T04:57:58.325Z,74.88
2022-12-18T05:00:25.531Z,75.02
2022-12-18T05:02:53.138Z,74.94
2022-12-18T05:05:21.108Z,75.08
2022-12-18T05:07:48.320Z,74.87
2022-12-18T05:10:15.548Z,74.98
2022-12-18T05:12:58.753Z,75.16
2022-12-18T05:15:30.848Z,75.16
2022-12-18T05:17:59.362Z,74.90
2022-12-18T05:20:28.077Z,74.95
2022-12-18T05:22:55.965Z,75.06
2022-12-18T05:25:24.359Z,75.03
2022-12-18T05:27:52.302Z,74.85
2022-12-18T05:30:19.577Z,75.12
2022-12-18T05:32:47.161Z,74.69
2022-12-18T05:35:15.075Z,74.89
2022-12-18T05:37:43.455Z,74.87
2022-12-18T05:40:11.805Z,74.88
2022-12-18T05:42:39.530Z,74.70
2022-12-18T05:45:07.280Z,74.79
2022-12-18T05:47:35.621Z,74.80
2022-12-18T05:50:03.485Z,74.87
2022-12-18T05:52:31.469Z,74.88
2022-12-18T05:54:59.672Z,74.81
2022-12-18T05:57:27.687Z,74.78
2022-12-18T05:59:56.270Z,74.39
2022-12-18T06:02:23.804Z,74.40
2022-12-18T06:04:51.475Z,74.40
2022-12-18T06:07:18.795Z,74.50
2022-12-18T06:09:46.454Z,74.38
2022-12-18T06:12:14.822Z,74.36
2022-12-18T06:14:42.051Z,74.20
2022-12-18T06:17:09.546Z,74.15
2022-12-18T06:19:37.754Z,74.10
2022-12-18T06:22:04.886Z,74.02
2022-12-18T06:24:33.695Z,74.15
2022-12-18T06:27:01.453Z,74.03
2022-12-18T06:29:28.747Z,73.84
2022-12-18T06:31:56.267Z,74.10
2022-12-18T06:34:23.746Z,74.14
2022-12-18T06:36:51.141Z,74.05
2022-12-18T06:39:18.598Z,74.25
2022-12-18T06:41:45.943Z,74.16
2022-12-18T06:44:13.151Z,74.25
2022-12-18T06:46:41.385Z,74.23
2022-12-18T06:49:10.492Z,74.29
2022-12-18T06:51:37.886Z,74.47
2022-12-18T06:54:05.795Z,74.66
2022-12-18T06:56:33.391Z,74.65
2022-12-18T06:59:00.668Z,74.51
2022-12-18T07:01:28.567Z,74.48
2022-12-18T07:03:57.745Z,74.27
2022-12-18T07:06:26.539Z,74.34
2022-12-18T07:08:54.773Z,74.37
2022-12-18T07:11:22.659Z,74.34
2022-12-18T07:13:49.804Z,74.20
2022-12-18T07:16:24.723Z,74.22
2022-12-18T07:18:55.655Z,74.47
2022-12-18T07:21:24.775Z,74.60
2022-12-18T07:23:52.554Z,74.73
2022-12-18T07:26:21.861Z,74.40
2022-12-18T07:28:50.420Z,74.46
2022-12-18T07:31:21.598Z,74.45
2022-12-18T07:33:50.544Z,74.34
2022-12-18T07:36:19.352Z,74.40
2022-12-18T07:38:51.199Z,74.27
2022-12-18T07:41:19.263Z,74.16
2022-12-18T07:43:47.171Z,74.25
2022-12-18T07:46:15.705Z,73.95
2022-12-18T07:48:44.276Z,74.15
2022-12-18T07:51:14.324Z,74.42
2022-12-18T07:53:43.309Z,74.23
2022-12-18T07:56:29.547Z,74.46
2022-12-18T07:58:58.759Z,74.36
2022-12-18T08:01:26.286Z,74.35
2022-12-18T08:03:53.866Z,74.25
2022-12-18T08:06:22.562Z,74.18
2022-12-18T08:08:53.209Z,74.23
2022-12-18T08:11:20.510Z,74.04
2022-12-18T08:13:49.194Z,74.16
2022-12-18T08:16:17.170Z,74.38
2022-12-18T08:18:44.774Z,74.50
2022-12-18T08:21:19.107Z,74.32
2022-12-18T08:23:50.416Z,74.12
2022-12-18T08:26:19.636Z,74.29
2022-12-18T08:28:48.682Z,74.47
2022-12-18T08:31:17.762Z,74.31
2022-12-18T08:33:45.583Z,74.16
2022-12-18T08:36:13.206Z,74.20
2022-12-18T08:38:40.605Z,74.25
2022-12-18T08:41:11.997Z,74.30
2022-12-18T08:43:59.136Z,74.39
2022-12-18T08:46:28.894Z,74.29
2022-12-18T08:48:56.791Z,74.25
2022-12-18T08:51:24.472Z,74.49
2022-12-18T08:53:52.508Z,74.60
2022-12-18T08:56:19.801Z,74.51
2022-12-18T08:59:00.370Z,74.35
2022-12-18T09:01:37.923Z,74.32
2022-12-18T09:04:11.153Z,74.21
2022-12-18T09:06:39.214Z,74.23
2022-12-18T09:09:07.174Z,74.37
2022-12-18T09:11:34.669Z,74.39
2022-12-18T09:14:02.517Z,74.72
2022-12-18T09:16:32.225Z,74.79
2022-12-18T09:19:01.060Z,75.18
2022-12-18T09:21:35.928Z,75.13
2022-12-18T09:24:07.319Z,74.72
2022-12-18T09:26:37.288Z,75.25
2022-12-18T09:29:04.925Z,75.38
2022-12-18T09:31:32.238Z,75.12
2022-12-18T09:34:00.084Z,75.45
2022-12-18T09:36:27.383Z,74.83
2022-12-18T09:38:55.431Z,74.67
2022-12-18T09:41:22.994Z,74.93
2022-12-18T09:43:54.919Z,74.98
2022-12-18T09:46:34.589Z,74.92
2022-12-18T09:49:05.909Z,74.51
2022-12-18T09:51:43.029Z,74.58
2022-12-18T09:54:21.336Z,74.74
2022-12-18T09:56:49.129Z,74.86
2022-12-18T09:59:37.495Z,74.77
2022-12-18T10:02:33.961Z,74.94
2022-12-18T10:05:09.598Z,74.69
2022-12-18T10:07:47.250Z,74.38
2022-12-18T10:10:27.371Z,74.66
2022-12-18T10:13:04.520Z,74.60
2022-12-18T10:15:41.307Z,74.81
2022-12-18T10:18:27.435Z,74.78
2022-12-18T10:21:24.103Z,74.34
2022-12-18T10:24:19.059Z,74.27
2022-12-18T10:26:48.446Z,74.55
2022-12-18T10:29:16.921Z,74.45
2022-12-18T10:31:44.361Z,74.34
2022-12-18T10:34:14.932Z,74.48
2022-12-18T10:36:43.011Z,74.56
2022-12-18T10:39:37.635Z,74.46
2022-12-18T10:42:17.720Z,74.46
2022-12-18T10:44:45.645Z,74.44
2022-12-18T10:47:19.565Z,74.36
2022-12-18T10:49:53.522Z,74.09
2022-12-18T10:52:26.928Z,74.04
2022-12-18T10:55:06.087Z,74.27
2022-12-18T10:57:37.567Z,74.29
2022-12-18T11:00:29.254Z,74.03
2022-12-18T11:02:57.627Z,74.15
2022-12-18T11:05:31.761Z,74.02
2022-12-18T11:08:01.067Z,74.12
2022-12-18T11:10:38.551Z,74.22
2022-12-18T11:13:18.309Z,73.81
2022-12-18T11:15:46.495Z,74.11
2022-12-18T11:18:26.900Z,74.09
2022-12-18T11:21:15.533Z,73.98
2022-12-18T11:23:54.899Z,73.90
2022-12-18T11:26:35.433Z,73.84
2022-12-18T11:29:11.590Z,73.96
2022-12-18T11:31:38.948Z,73.89
2022-12-18T11:34:54.706Z,73.97
2022-12-18T11:37:27.820Z,73.87
2022-12-18T11:40:00.500Z,73.69
2022-12-18T11:42:43.569Z,73.85
2022-12-18T11:45:14.244Z,73.68
2022-12-18T11:47:45.464Z,73.56
2022-12-18T11:50:32.629Z,73.74
2022-12-18T11:53:05.645Z,73.59
2022-12-18T11:55:52.672Z,73.50
2022-12-18T11:58:47.614Z,73.58
2022-12-18T12:01:56.996Z,73.57
2022-12-18T12:04:34.934Z,73.80
2022-12-18T12:07:05.678Z,73.74
2022-12-18T12:09:52.268Z,73.21
2022-12-18T12:12:49.539Z,73.07
2022-12-18T12:15:29.999Z,72.91
2022-12-18T12:18:11.475Z,73.02
2022-12-18T12:21:05.545Z,73.16
2022-12-18T12:23:55.869Z,72.81
2022-12-18T12:26:26.120Z,73.05
2022-12-18T12:29:22.903Z,72.83
2022-12-18T12:32:15.646Z,72.93
2022-12-18T12:35:00.831Z,72.68
2022-12-18T12:37:45.283Z,72.40
2022-12-18T12:40:49.293Z,72.45
2022-12-18T12:43:22.362Z,72.19
2022-12-18T12:46:11.250Z,72.30
2022-12-18T12:48:47.402Z,72.53
2022-12-18T12:51:20.082Z,72.79
2022-12-18T12:53:49.888Z,72.61
2022-12-18T12:56:20.431Z,72.72
2022-12-18T12:58:57.265Z,72.46
2022-12-18T13:01:37.089Z,72.53
2022-12-18T13:04:23.125Z,72.63
2022-12-18T13:07:03.009Z,72.27
2022-12-18T13:09:32.489Z,72.38
2022-12-18T13:12:30.510Z,71.97
2022-12-18T13:15:22.003Z,72.42
2022-12-18T13:17:49.727Z,72.49
2022-12-18T13:20:17.289Z,72.33
2022-12-18T13:22:49.976Z,72.28
2022-12-18T13:25:38.043Z,72.44
2022-12-18T13:28:16.136Z,72.03
2022-12-18T13:30:57.493Z,72.30
2022-12-18T13:33:51.020Z,72.25
2022-12-18T13:36:34.810Z,71.95
2022-12-18T13:39:19.695Z,71.93
2022-12-18T13:41:53.542Z,72.04
2022-12-18T13:44:40.027Z,71.79
2022-12-18T13:47:32.986Z,72.12
2022-12-18T13:50:10.990Z,71.86
2022-12-18T13:52:40.701Z,72.06
2022-12-18T13:55:17.908Z,71.99
2022-12-18T13:57:45.657Z,72.13
2022-12-18T14:00:26.862Z,71.87
2022-12-18T14:02:54.962Z,71.93
2022-12-18T14:05:24.405Z,71.82
2022-12-18T14:07:54.531Z,71.70
2022-12-18T14:10:44.410Z,71.42
2022-12-18T14:13:25.479Z,71.30
2022-12-18T14:15:54.436Z,71.47
2022-12-18T14:18:57.564Z,71.18
2022-12-18T14:21:38.798Z,71.12
2022-12-18T14:24:23.204Z,71.32
2022-12-18T14:26:51.653Z,71.21
2022-12-18T14:29:31.864Z,71.45
2022-12-18T14:32:18.681Z,71.12
2022-12-18T14:34:51.043Z,71.13
2022-12-18T14:37:26.439Z,71.27
2022-12-18T14:40:02.188Z,71.51
2022-12-18T14:42:32.652Z,71.43
2022-12-18T14:45:42.404Z,71.49
2022-12-18T14:48:22.942Z,71.62
2022-12-18T14:51:03.423Z,71.46
2022-12-18T14:53:34.065Z,71.54
2022-12-18T14:56:02.881Z,71.31
2022-12-18T14:58:30.598Z,71.32
2022-12-18T15:00:58.514Z,71.09
2022-12-18T15:03:26.213Z,71.03
2022-12-18T15:05:54.675Z,70.86
2022-12-18T15:08:35.882Z,71.15
2022-12-18T15:11:06.602Z,71.09
2022-12-18T15:13:36.725Z,71.09
2022-12-18T15:16:04.229Z,70.98
2022-12-18T15:18:36.269Z,71.03
2022-12-18T15:21:15.215Z,71.04
2022-12-18T15:23:46.153Z,70.87
2022-12-18T15:26:16.693Z,70.87
2022-12-18T15:28:50.922Z,70.87
2022-12-18T15:31:30.054Z,70.94
2022-12-18T15:33:59.922Z,71.04
2022-12-18T15:36:30.972Z,71.06
2022-12-18T15:39:05.071Z,71.01
2022-12-18T15:41:36.527Z,70.91
2022-12-18T15:44:22.999Z,70.82
2022-12-18T15:46:50.922Z,70.90
2022-12-18T15:49:18.231Z,70.90
2022-12-18T15:51:49.497Z,70.78
2022-12-18T15:54:17.809Z,70.84
2022-12-18T15:57:03.463Z,70.88
2022-12-18T15:59:30.934Z,70.64
2022-12-18T16:01:58.562Z,70.82
2022-12-18T16:04:26.333Z,70.93
2022-12-18T16:09:41.368Z,70.65
2022-12-18T16:12:21.741Z,70.84
2022-12-18T16:14:49.465Z,71.00
2022-12-18T16:17:17.086Z,71.05
2022-12-18T16:19:44.876Z,70.96
2022-12-18T16:22:20.513Z,70.92
2022-12-18T16:24:48.977Z,71.08
2022-12-18T16:27:16.676Z,70.86
2022-12-18T16:29:44.241Z,70.90
2022-12-18T16:32:18.171Z,70.97
2022-12-18T16:34:45.995Z,70.96
2022-12-18T16:37:15.396Z,70.70
2022-12-18T16:39:43.183Z,70.72
2022-12-18T16:42:19.572Z,70.88
2022-12-18T16:44:48.892Z,71.04
2022-12-18T16:47:17.189Z,71.06
2022-12-18T16:49:46.068Z,70.82
2022-12-18T16:52:14.409Z,70.74
2022-12-18T16:54:41.783Z,70.87
2022-12-18T16:57:16.712Z,70.84
2022-12-18T16:59:44.406Z,70.86
2022-12-18T17:02:23.423Z,70.86
2022-12-18T17:04:57.013Z,70.73
2022-12-18T17:07:25.864Z,70.66
2022-12-18T17:09:54.391Z,70.60
2022-12-18T17:12:22.484Z,70.85
2022-12-18T17:14:50.025Z,70.77
2022-12-18T17:17:21.792Z,70.78
2022-12-18T17:19:50.066Z,70.83
2022-12-18T17:22:18.145Z,70.92
2022-12-18T17:24:50.099Z,70.71
2022-12-18T17:27:17.778Z,70.63
2022-12-18T17:29:48.264Z,70.64
2022-12-18T17:32:17.865Z,70.89
2022-12-18T17:34:46.113Z,70.57
2022-12-18T17:37:14.098Z,70.58
2022-12-18T17:39:44.540Z,70.80
2022-12-18T17:42:15.350Z,70.78
2022-12-18T17:44:44.471Z,70.69
2022-12-18T17:47:13.629Z,70.71
2022-12-18T17:49:40.950Z,70.87
2022-12-18T17:52:08.551Z,70.62
2022-12-18T17:54:39.191Z,70.61
2022-12-18T17:57:06.396Z,70.63
2022-12-18T17:59:34.848Z,70.52
2022-12-18T18:02:02.216Z,70.69
2022-12-18T18:04:40.812Z,70.69
2022-12-18T18:07:37.545Z,70.56
2022-12-18T18:10:22.589Z,70.77
2022-12-18T18:13:44.944Z,70.77
2022-12-18T18:16:43.081Z,70.44
2022-12-18T18:19:37.867Z,70.25
2022-12-18T18:22:38.641Z,70.52
2022-12-18T18:25:28.115Z,70.42
2022-12-18T18:28:26.995Z,70.66
2022-12-18T18:31:19.966Z,70.55
2022-12-18T18:34:15.963Z,70.73
2022-12-18T18:37:17.677Z,70.47
2022-12-18T18:40:07.899Z,70.44
2022-12-18T18:43:01.828Z,70.79
2022-12-18T18:45:39.459Z,70.64
2022-12-18T18:48:14.453Z,70.59
2022-12-18T18:50:45.375Z,70.53
2022-12-18T18:53:12.697Z,70.50
2022-12-18T18:55:41.139Z,70.94
2022-12-18T18:58:08.602Z,70.59
2022-12-18T19:00:36.218Z,70.83
2022-12-18T19:03:04.386Z,70.86
2022-12-18T19:05:33.688Z,70.85
2022-12-18T19:08:00.994Z,70.47
2022-12-18T19:10:29.193Z,70.60
2022-12-18T19:13:15.963Z,70.86
2022-12-18T19:15:45.759Z,70.99
2022-12-18T19:18:13.501Z,70.95
2022-12-18T19:20:41.521Z,71.04
2022-12-18T19:23:09.740Z,71.00
2022-12-18T19:25:41.653Z,70.84
2022-12-18T19:28:21.945Z,70.94
2022-12-18T19:30:58.576Z,71.05
2022-12-18T19:33:44.598Z,70.99
2022-12-18T19:36:20.811Z,70.92
2022-12-18T19:38:50.176Z,71.01
2022-12-18T19:41:18.861Z,70.93
2022-12-18T19:43:47.892Z,70.92
2022-12-18T19:46:17.942Z,70.92
2022-12-18T19:48:46.733Z,71.15
2022-12-18T19:51:18.550Z,71.16
2022-12-18T19:53:46.993Z,71.16
2022-12-18T19:56:17.004Z,71.18
2022-12-18T19:58:45.209Z,71.13
2022-12-18T20:01:20.462Z,71.10
2022-12-18T20:03:52.433Z,71.19
2022-12-18T20:06:27.658Z,71.34
2022-12-18T20:09:00.050Z,71.46
2022-12-18T20:11:29.956Z,71.42
2022-12-18T20:13:57.964Z,71.47
2022-12-18T20:16:25.323Z,71.28
2022-12-18T20:18:55.769Z,71.39
2022-12-18T20:21:23.833Z,71.06
2022-12-18T20:23:51.500Z,71.22
2022-12-18T20:26:19.424Z,71.19
2022-12-18T20:28:47.520Z,71.17
2022-12-18T20:31:14.893Z,71.19
2022-12-18T20:33:43.129Z,71.40
2022-12-18T20:36:21.278Z,71.40
2022-12-18T20:38:56.960Z,71.56
2022-12-18T20:41:25.401Z,71.57
2022-12-18T20:43:52.622Z,71.43
2022-12-18T20:46:20.477Z,71.60
2022-12-18T20:48:48.628Z,71.31
2022-12-18T20:51:21.078Z,71.31
2022-12-18T20:53:48.562Z,71.43
2022-12-18T20:56:21.184Z,71.47
2022-12-18T20:58:51.336Z,71.60
2022-12-18T21:01:24.194Z,71.67
2022-12-18T21:03:52.545Z,71.33
2022-12-18T21:06:22.062Z,71.26
2022-12-18T21:08:49.389Z,71.40
2022-12-18T21:11:38.826Z,71.42
2022-12-18T21:14:13.503Z,71.38
2022-12-18T21:16:43.671Z,71.39
2022-12-18T21:19:12.792Z,71.38
2022-12-18T21:21:41.426Z,71.57
2022-12-18T21:24:09.948Z,71.46
2022-12-18T21:26:44.829Z,71.56
2022-12-18T21:29:16.530Z,71.57
2022-12-18T21:31:45.000Z,71.62
2022-12-18T21:34:20.017Z,71.78
2022-12-18T21:36:48.332Z,71.73
2022-12-18T21:39:15.918Z,71.67
2022-12-18T21:42:03.104Z,71.80
2022-12-18T21:44:31.540Z,71.92
2022-12-18T21:47:13.751Z,71.83
2022-12-18T21:49:52.580Z,72.01
2022-12-18T21:52:31.582Z,71.93
2022-12-18T21:55:09.521Z,72.08
2022-12-18T21:57:38.200Z,71.87
2022-12-18T22:00:11.256Z,71.94
2022-12-18T22:02:47.264Z,71.82
2022-12-18T22:05:15.248Z,71.73
2022-12-18T22:07:42.533Z,71.80
2022-12-18T22:10:10.120Z,71.66
2022-12-18T22:12:44.466Z,71.63
2022-12-18T22:15:21.709Z,71.79
2022-12-18T22:17:50.834Z,71.62
2022-12-18T22:20:20.064Z,71.67
2022-12-18T22:22:51.153Z,71.76
2022-12-18T22:25:18.932Z,71.79
2022-12-18T22:28:06.375Z,71.97
2022-12-18T22:30:34.536Z,71.98
2022-12-18T22:33:02.154Z,72.09
2022-12-18T22:35:29.418Z,72.36
2022-12-18T22:38:00.764Z,72.24
2022-12-18T22:40:28.412Z,72.24
2022-12-18T22:42:55.937Z,72.27
2022-12-18T22:45:27.543Z,72.38
2022-12-18T22:47:54.924Z,72.30
2022-12-18T22:50:22.266Z,72.24
2022-12-18T22:52:49.886Z,72.31
2022-12-18T22:55:17.017Z,72.35
2022-12-18T22:57:48.729Z,72.47
2022-12-18T23:00:24.255Z,72.47
2022-12-18T23:03:00.359Z,72.57
2022-12-18T23:05:30.988Z,72.64
2022-12-18T23:07:58.846Z,72.70
2022-12-18T23:10:27.008Z,72.65
2022-12-18T23:12:55.389Z,72.59
2022-12-18T23:15:27.891Z,72.57
2022-12-18T23:17:59.605Z,72.78
2022-12-18T23:20:27.582Z,72.88
2022-12-18T23:22:54.770Z,72.82
2022-12-18T23:25:23.193Z,72.78
2022-12-18T23:27:50.752Z,72.81
2022-12-18T23:30:18.177Z,72.81
2022-12-18T23:32:46.725Z,72.77
2022-12-18T23:35:14.275Z,72.84
2022-12-18T23:38:00.103Z,72.94
2022-12-18T23:40:29.610Z,72.85
2022-12-18T23:42:58.667Z,73.05
2022-12-18T23:45:25.904Z,72.90
2022-12-18T23:47:54.083Z,72.95
2022-12-18T23:50:27.701Z,73.17
2022-12-18T23:53:04.606Z,73.14
2022-12-18T23:55:38.969Z,73.20
2022-12-18T23:58:08.935Z,72.97
